createdAt,value
2022-08-05T00:00:30.239Z,50.7
2022-08-05T00:01:35.417Z,50.8
2022-08-05T00:02:34.241Z,50.8
2022-08-05T00:03:36.229Z,50.8
2022-08-05T00:04:38.249Z,50.7
2022-08-05T00:06:03.564Z,50.7
2022-08-05T00:06:42.239Z,50.6
2022-08-05T00:07:59.590Z,50.6
2022-08-05T00:08:46.220Z,50.6
2022-08-05T00:09:48.242Z,50.6
2022-08-05T00:10:50.263Z,50.6
2022-08-05T00:11:55.262Z,50.6
2022-08-05T00:12:57.264Z,50.6
2022-08-05T00:14:00.233Z,50.5
2022-08-05T00:15:14.145Z,50.6
2022-08-05T00:16:04.252Z,50.6
2022-08-05T00:17:06.313Z,50.7
2022-08-05T00:18:08.239Z,50.9
2022-08-05T00:19:10.236Z,50.9
2022-08-05T00:20:12.250Z,51
2022-08-05T00:21:14.697Z,51.1
2022-08-05T00:22:16.313Z,51.2
2022-08-05T00:23:30.922Z,51.3
2022-08-05T00:24:24.438Z,51.3
2022-08-05T00:25:22.299Z,51.4
2022-08-05T00:26:24.245Z,51.4
2022-08-05T00:27:28.366Z,51.5
2022-08-05T00:28:29.555Z,51.4
2022-08-05T00:29:32.979Z,51.5
2022-08-05T00:30:32.311Z,51.4
2022-08-05T00:31:41.268Z,51.5
2022-08-05T00:32:36.276Z,51.4
2022-08-05T00:34:42.712Z,51.4
2022-08-05T00:34:42.835Z,51.5
2022-08-05T00:35:47.880Z,51.4
2022-08-05T00:37:09.548Z,51.5
2022-08-05T00:37:51.470Z,51.6
2022-08-05T00:38:48.276Z,51.8
2022-08-05T00:39:57.671Z,51.8
2022-08-05T00:40:53.368Z,52
2022-08-05T00:41:55.681Z,52
2022-08-05T00:42:56.277Z,52.2
2022-08-05T00:43:58.271Z,52.3
2022-08-05T00:45:00.306Z,52.3
2022-08-05T00:46:02.303Z,52.3
2022-08-05T00:47:05.845Z,52.4
2022-08-05T00:48:06.515Z,52.4
2022-08-05T00:49:08.339Z,52.5
2022-08-05T00:50:10.308Z,52.5
2022-08-05T00:51:50.099Z,52.5
2022-08-05T00:52:14.311Z,52.5
2022-08-05T00:53:45.572Z,52.5
2022-08-05T00:54:18.343Z,52.5
2022-08-05T00:55:20.354Z,52.5
2022-08-05T00:56:22.643Z,52.5
2022-08-05T00:57:25.321Z,52.5
2022-08-05T00:58:27.277Z,52.5
2022-08-05T00:59:33.764Z,52.5
2022-08-05T01:00:30.358Z,52.6
2022-08-05T01:01:42.357Z,52.7
2022-08-05T01:02:34.336Z,52.7
2022-08-05T01:03:36.338Z,52.6
2022-08-05T01:04:38.328Z,52.4
2022-08-05T01:05:40.313Z,52.4
2022-08-05T01:06:43.805Z,52.5
2022-08-05T01:08:30.530Z,52.6
2022-08-05T01:08:47.347Z,52.4
2022-08-05T01:09:55.296Z,52.5
2022-08-05T01:10:51.790Z,52.6
2022-08-05T01:11:52.775Z,52.8
2022-08-05T01:13:00.436Z,52.8
2022-08-05T01:13:57.183Z,52.8
2022-08-05T01:14:58.339Z,52.9
2022-08-05T01:16:00.474Z,52.9
2022-08-05T01:17:02.371Z,52.8
2022-08-05T01:18:04.337Z,52.9
2022-08-05T01:19:06.378Z,52.9
2022-08-05T01:20:08.340Z,52.9
2022-08-05T01:21:11.945Z,53.1
2022-08-05T01:22:15.600Z,52.9
2022-08-05T01:23:15.476Z,53
2022-08-05T01:24:16.417Z,53.1
2022-08-05T01:25:18.349Z,53.2
2022-08-05T01:26:20.431Z,53
2022-08-05T01:27:22.658Z,52.9
2022-08-05T01:28:24.360Z,52.8
2022-08-05T01:29:26.416Z,52.8
2022-08-05T01:30:33.463Z,53
2022-08-05T01:31:30.606Z,52.9
2022-08-05T01:32:32.376Z,52.9
2022-08-05T01:33:35.277Z,53
2022-08-05T01:34:36.606Z,53.1
2022-08-05T01:35:50.419Z,53.2
2022-08-05T01:36:42.109Z,53.1
2022-08-05T01:37:44.464Z,53
2022-08-05T01:38:44.419Z,53.1
2022-08-05T01:39:47.789Z,52.9
2022-08-05T01:40:48.386Z,52.9
2022-08-05T01:41:50.850Z,52.9
2022-08-05T01:42:52.415Z,53
2022-08-05T01:43:54.418Z,53
2022-08-05T01:44:56.413Z,53.1
2022-08-05T01:45:58.385Z,53.1
2022-08-05T01:47:00.608Z,53.1
2022-08-05T01:48:02.465Z,53
2022-08-05T01:49:12.260Z,53
2022-08-05T01:50:06.388Z,53
2022-08-05T01:51:11.906Z,53.4
2022-08-05T01:52:12.327Z,53.5
2022-08-05T01:53:12.399Z,53.2
2022-08-05T01:54:14.422Z,53.3
2022-08-05T01:55:16.442Z,53.3
2022-08-05T01:58:08.719Z,53.2
2022-08-05T01:58:08.968Z,53.3
2022-08-05T01:58:30.102Z,53.3
2022-08-05T01:59:24.438Z,53.2
2022-08-05T02:00:29.803Z,53.3
2022-08-05T02:01:28.444Z,53.3
2022-08-05T02:02:30.464Z,53.5
2022-08-05T02:03:34.050Z,53.6
2022-08-05T02:04:34.492Z,53.7
2022-08-05T02:05:36.640Z,53.9
2022-08-05T02:06:38.881Z,54
2022-08-05T02:07:41.017Z,54.1
2022-08-05T02:08:44.806Z,54.2
2022-08-05T02:09:44.436Z,54.2
2022-08-05T02:10:47.024Z,54.2
2022-08-05T02:11:52.448Z,54.3
2022-08-05T02:12:51.155Z,54.4
2022-08-05T02:13:54.035Z,54.3
2022-08-05T02:14:54.429Z,54.5
2022-08-05T02:15:56.478Z,54.5
2022-08-05T02:16:58.440Z,54.5
2022-08-05T02:18:28.987Z,54.3
2022-08-05T02:19:02.477Z,54.4
2022-08-05T02:20:04.474Z,54.4
2022-08-05T02:21:06.494Z,54.4
2022-08-05T02:22:08.440Z,54.4
2022-08-05T02:23:10.447Z,54.4
2022-08-05T02:24:12.438Z,54.4
2022-08-05T02:25:14.494Z,54.4
2022-08-05T02:26:17.068Z,54.4
2022-08-05T02:27:18.491Z,54.6
2022-08-05T02:28:21.497Z,54.6
2022-08-05T02:29:24.208Z,54.4
2022-08-05T02:30:24.489Z,54.3
2022-08-05T02:31:26.500Z,54.3
2022-08-05T02:32:29.302Z,54.3
2022-08-05T02:33:36.317Z,54.5
2022-08-05T02:34:32.451Z,54.7
2022-08-05T02:35:37.484Z,54.7
2022-08-05T02:36:36.468Z,54.7
2022-08-05T02:37:38.502Z,54.8
2022-08-05T02:38:41.016Z,54.7
2022-08-05T02:39:42.505Z,54.6
2022-08-05T02:40:44.465Z,54.6
2022-08-05T02:41:57.720Z,54.6
2022-08-05T02:42:52.608Z,54.6
2022-08-05T02:44:02.136Z,54.8
2022-08-05T02:44:52.475Z,54.9
2022-08-05T02:45:54.549Z,54.9
2022-08-05T02:47:00.051Z,54.7
2022-08-05T02:48:07.748Z,54.7
2022-08-05T02:49:00.476Z,54.6
2022-08-05T02:50:02.632Z,54.5
2022-08-05T02:51:04.561Z,54.5
2022-08-05T02:52:06.501Z,54.8
2022-08-05T02:53:11.617Z,54.9
2022-08-05T02:54:10.553Z,55
2022-08-05T02:55:12.526Z,55.2
2022-08-05T02:56:15.841Z,55.6
2022-08-05T02:58:08.983Z,55.7
2022-08-05T02:58:19.741Z,55.8
2022-08-05T02:59:20.531Z,55.9
2022-08-05T03:00:22.546Z,55.9
2022-08-05T03:01:24.855Z,55.9
2022-08-05T03:02:27.536Z,56.2
2022-08-05T03:03:28.545Z,56.1
2022-08-05T03:04:31.069Z,56.1
2022-08-05T03:06:52.819Z,56.5
2022-08-05T03:06:52.898Z,56.1
2022-08-05T03:07:40.826Z,56.7
2022-08-05T03:08:42.501Z,56.7
2022-08-05T03:09:51.566Z,56.9
2022-08-05T03:11:41.252Z,57.1
2022-08-05T03:11:54.184Z,57.1
2022-08-05T03:12:51.843Z,57
2022-08-05T03:14:02.566Z,57
2022-08-05T03:14:53.521Z,57
2022-08-05T03:15:55.605Z,56.9
2022-08-05T03:16:57.551Z,56.8
2022-08-05T03:17:59.583Z,56.9
2022-08-05T03:19:01.602Z,56.9
2022-08-05T03:20:03.587Z,56.9
2022-08-05T03:21:05.614Z,56.8
2022-08-05T03:22:16.204Z,56.7
2022-08-05T03:23:09.528Z,56.6
2022-08-05T03:24:11.624Z,56.8
2022-08-05T03:25:34.226Z,57.1
2022-08-05T03:26:30.776Z,57.2
2022-08-05T03:27:17.557Z,57.2
2022-08-05T03:28:19.643Z,57.4
2022-08-05T03:29:21.585Z,57.6
2022-08-05T03:30:30.142Z,57.8
2022-08-05T03:31:56.409Z,57.9
2022-08-05T03:32:30.754Z,57.9
2022-08-05T03:33:32.347Z,57.7
2022-08-05T03:34:31.596Z,57.6
2022-08-05T03:35:33.666Z,57.9
2022-08-05T03:36:35.581Z,58.1
2022-08-05T03:37:44.791Z,58
2022-08-05T03:38:41.564Z,58
2022-08-05T03:39:47.314Z,58.1
2022-08-05T03:40:47.167Z,58.2
2022-08-05T03:41:47.575Z,58.3
2022-08-05T03:42:51.585Z,58.6
2022-08-05T03:43:59.519Z,58.8
2022-08-05T03:44:53.625Z,59
2022-08-05T03:45:57.496Z,59.2
2022-08-05T03:46:57.573Z,59.4
2022-08-05T03:47:59.678Z,59.5
2022-08-05T03:49:01.798Z,59.5
2022-08-05T03:50:03.613Z,59.4
2022-08-05T03:52:35.964Z,59.3
2022-08-05T03:52:36.174Z,59.3
2022-08-05T03:54:59.760Z,59.1
2022-08-05T03:54:59.900Z,59.1
2022-08-05T03:55:51.524Z,59
2022-08-05T03:56:17.272Z,59.1
2022-08-05T03:57:18.024Z,59
2022-08-05T03:58:19.665Z,59
2022-08-05T03:59:21.600Z,59.1
2022-08-05T04:00:23.630Z,59
2022-08-05T04:01:26.090Z,58.9
2022-08-05T04:02:38.137Z,59
2022-08-05T04:03:29.639Z,59.1
2022-08-05T04:04:31.658Z,59.2
2022-08-05T04:05:34.535Z,59.1
2022-08-05T04:06:35.642Z,59.2
2022-08-05T04:07:53.117Z,59.4
2022-08-05T04:08:39.613Z,59.5
2022-08-05T04:09:52.981Z,59.5
2022-08-05T04:10:43.624Z,59.3
2022-08-05T04:11:47.056Z,59.3
2022-08-05T04:12:47.620Z,59.3
2022-08-05T04:13:53.354Z,59.2
2022-08-05T04:14:51.693Z,59.2
2022-08-05T04:16:03.476Z,59.1
2022-08-05T04:16:55.631Z,59
2022-08-05T04:18:00.002Z,59
2022-08-05T04:19:00.023Z,59.1
2022-08-05T04:20:01.703Z,59.2
2022-08-05T04:21:03.853Z,59.1
2022-08-05T04:22:10.439Z,59.1
2022-08-05T04:23:07.646Z,59.1
2022-08-05T04:24:19.070Z,59
2022-08-05T04:25:11.734Z,59
2022-08-05T04:26:13.744Z,59.1
2022-08-05T04:27:15.726Z,59.1
2022-08-05T04:28:17.657Z,59.1
2022-08-05T04:29:19.893Z,59
2022-08-05T04:30:21.748Z,58.9
2022-08-05T04:31:23.672Z,58.7
2022-08-05T04:32:30.928Z,58.7
2022-08-05T04:33:55.106Z,58.7
2022-08-05T04:34:33.292Z,58.6
2022-08-05T04:36:11.478Z,58.3
2022-08-05T04:36:46.641Z,58.1
2022-08-05T04:38:01.913Z,58
2022-08-05T04:38:39.363Z,57.9
2022-08-05T04:39:40.046Z,58
2022-08-05T04:40:44.505Z,58
2022-08-05T04:41:43.693Z,57.7
2022-08-05T04:42:45.685Z,57.6
2022-08-05T04:43:48.264Z,57.3
2022-08-05T04:44:49.681Z,57.2
2022-08-05T04:45:55.146Z,57.3
2022-08-05T04:46:53.683Z,57.4
2022-08-05T04:47:55.711Z,57.2
2022-08-05T04:48:58.680Z,57.2
2022-08-05T04:50:02.314Z,57.1
2022-08-05T04:51:03.172Z,56.9
2022-08-05T04:52:03.746Z,56.7
2022-08-05T04:53:05.702Z,56.7
2022-08-05T04:54:07.696Z,56.7
2022-08-05T04:55:14.857Z,56.4
2022-08-05T04:56:15.601Z,56.4
2022-08-05T04:57:13.689Z,56.2
2022-08-05T04:58:15.730Z,56.2
2022-08-05T04:59:22.543Z,56.4
2022-08-05T05:00:19.708Z,56.4
2022-08-05T05:01:33.394Z,56.4
2022-08-05T05:02:35.945Z,56.6
2022-08-05T05:03:25.725Z,56.4
2022-08-05T05:04:27.778Z,56.4
2022-08-05T05:05:29.721Z,56.3
2022-08-05T05:06:35.697Z,56.2
2022-08-05T05:07:35.425Z,56.5
2022-08-05T05:08:35.712Z,56.5
2022-08-05T05:09:38.078Z,56.3
2022-08-05T05:10:39.807Z,56.4
2022-08-05T05:11:54.271Z,56.4
2022-08-05T05:12:43.729Z,56.7
2022-08-05T05:13:45.723Z,56.6
2022-08-05T05:14:49.094Z,56.4
2022-08-05T05:15:54.492Z,56.1
2022-08-05T05:16:51.737Z,56
2022-08-05T05:17:56.037Z,56
2022-08-05T05:19:16.692Z,55.8
2022-08-05T05:19:57.705Z,55.9
2022-08-05T05:20:59.781Z,56.1
2022-08-05T05:22:03.531Z,55.8
2022-08-05T05:23:08.319Z,55.9
2022-08-05T05:24:09.021Z,55.8
2022-08-05T05:25:14.802Z,55.5
2022-08-05T05:26:09.796Z,55.4
2022-08-05T05:27:11.763Z,55.3
2022-08-05T05:28:13.783Z,55.2
2022-08-05T05:29:15.786Z,55.3
2022-08-05T05:30:28.959Z,55.2
2022-08-05T05:31:19.827Z,55.1
2022-08-05T05:32:21.786Z,55.1
2022-08-05T05:33:24.039Z,54.9
2022-08-05T05:34:26.842Z,54.7
2022-08-05T05:35:27.788Z,54.5
2022-08-05T05:36:30.184Z,54.7
2022-08-05T05:37:37.542Z,55.2
2022-08-05T05:38:33.774Z,55.4
2022-08-05T05:39:36.132Z,55.3
2022-08-05T05:40:41.450Z,55.2
2022-08-05T05:41:41.742Z,54.5
2022-08-05T05:42:43.354Z,54.7
2022-08-05T05:43:57.792Z,54.9
2022-08-05T05:44:46.767Z,55.2
2022-08-05T05:45:48.764Z,55.5
2022-08-05T05:46:51.143Z,55
2022-08-05T05:48:05.837Z,54.6
2022-08-05T05:48:54.858Z,54.2
2022-08-05T05:50:01.377Z,53.9
2022-08-05T05:50:59.730Z,53.7
2022-08-05T05:52:06.111Z,53.9
2022-08-05T05:53:08.446Z,53.6
2022-08-05T05:54:06.705Z,53.1
2022-08-05T05:55:13.472Z,52.6
2022-08-05T05:56:11.211Z,52.6
2022-08-05T05:57:13.658Z,52.2
2022-08-05T05:58:14.839Z,52.3
2022-08-05T05:59:16.789Z,52.9
2022-08-05T06:00:18.824Z,53.3
2022-08-05T06:01:23.407Z,53
2022-08-05T06:02:25.330Z,52.8
2022-08-05T06:03:28.249Z,52.7
2022-08-05T06:04:27.087Z,52.7
2022-08-05T06:05:29.979Z,53.2
2022-08-05T06:06:33.281Z,52.7
2022-08-05T06:07:41.156Z,52.7
2022-08-05T06:08:35.846Z,52.2
2022-08-05T06:09:49.173Z,51.5
2022-08-05T06:10:49.288Z,51.9
2022-08-05T06:11:41.830Z,52
2022-08-05T06:12:43.824Z,52.3
2022-08-05T06:13:50.692Z,52
2022-08-05T06:14:47.880Z,52.4
2022-08-05T06:16:27.778Z,52.3
2022-08-05T06:16:51.841Z,52.1
2022-08-05T06:17:54.496Z,52
2022-08-05T06:18:55.984Z,52.4
2022-08-05T06:19:59.463Z,52.8
2022-08-05T06:21:00.198Z,52.7
2022-08-05T06:22:01.987Z,52.6
2022-08-05T06:23:04.089Z,53
2022-08-05T06:24:06.066Z,52.9
2022-08-05T06:25:24.820Z,53.1
2022-08-05T06:26:13.984Z,52.2
2022-08-05T06:27:13.113Z,50.9
2022-08-05T06:28:20.847Z,49.8
2022-08-05T06:29:22.698Z,48.3
2022-08-05T06:30:21.158Z,47.1
2022-08-05T06:31:22.216Z,46
2022-08-05T06:32:26.469Z,45.1
2022-08-05T06:33:33.204Z,44.4
2022-08-05T06:34:26.480Z,43.9
2022-08-05T06:36:04.451Z,43
2022-08-05T06:36:29.866Z,41.7
2022-08-05T06:37:52.394Z,41
2022-08-05T06:38:35.722Z,40.8
2022-08-05T06:39:36.009Z,40.3
2022-08-05T06:40:37.919Z,40
2022-08-05T06:41:40.597Z,40.3
2022-08-05T06:42:41.984Z,40.3
2022-08-05T06:43:51.818Z,40.2
2022-08-05T06:44:45.907Z,39.6
2022-08-05T06:46:03.476Z,39.4
2022-08-05T06:46:50.655Z,39.3
2022-08-05T06:48:12.077Z,39.5
2022-08-05T06:48:56.543Z,39.8
2022-08-05T06:50:00.952Z,40
2022-08-05T06:50:58.297Z,40.3
2022-08-05T06:52:00.467Z,40.5
2022-08-05T06:53:03.671Z,39.7
2022-08-05T06:54:03.929Z,39.6
2022-08-05T06:55:05.931Z,39.2
2022-08-05T06:56:11.651Z,39.2
2022-08-05T06:57:13.978Z,39.5
2022-08-05T06:58:20.650Z,40
2022-08-05T06:59:13.920Z,39.7
2022-08-05T07:00:22.381Z,39.4
2022-08-05T07:01:20.899Z,39.3
2022-08-05T07:02:22.799Z,39.5
2022-08-05T07:03:21.950Z,39.3
2022-08-05T07:04:23.895Z,39
2022-08-05T07:05:37.576Z,38.7
2022-08-05T07:06:28.655Z,38.7
2022-08-05T07:07:35.350Z,38.5
2022-08-05T07:08:32.408Z,38.5
2022-08-05T07:09:37.406Z,38.2
2022-08-05T07:10:35.335Z,38.3
2022-08-05T07:11:39.761Z,37.5
2022-08-05T07:12:38.363Z,37.7
2022-08-05T07:13:57.265Z,37.9
2022-08-05T07:14:41.368Z,37.4
2022-08-05T07:16:00.732Z,37.3
2022-08-05T07:17:56.106Z,36.4
2022-08-05T07:17:58.144Z,36.5
2022-08-05T07:18:48.067Z,36.5
2022-08-05T07:20:50.358Z,35.4
2022-08-05T07:21:59.737Z,35.5
2022-08-05T07:22:54.935Z,35.3
2022-08-05T07:23:56.946Z,35.6
2022-08-05T07:24:58.953Z,35.3
2022-08-05T07:26:00.355Z,35.3
2022-08-05T07:27:02.836Z,35.8
2022-08-05T07:28:05.481Z,36.1
2022-08-05T07:29:03.955Z,36.1
2022-08-05T07:30:22.412Z,36.1
2022-08-05T07:31:08.044Z,36.7
2022-08-05T07:32:09.596Z,36.6
2022-08-05T07:33:15.805Z,37.2
2022-08-05T07:34:11.439Z,36.8
2022-08-05T07:35:56.163Z,36.8
2022-08-05T07:36:19.784Z,36.6
2022-08-05T07:37:14.527Z,36.3
2022-08-05T07:38:26.268Z,36.2
2022-08-05T07:39:24.331Z,35.7
2022-08-05T07:40:27.288Z,35.9
2022-08-05T07:42:07.530Z,35.8
2022-08-05T07:42:31.614Z,35.6
2022-08-05T07:43:22.129Z,35.6
2022-08-05T07:44:24.047Z,35.8
2022-08-05T07:45:43.403Z,36.1
2022-08-05T07:46:26.749Z,36.4
2022-08-05T07:47:27.381Z,36.7
2022-08-05T07:49:01.210Z,36.6
2022-08-05T07:49:30.441Z,36.3
2022-08-05T07:50:32.594Z,36.7
2022-08-05T07:51:36.540Z,36.7
2022-08-05T07:52:33.400Z,36.1
2022-08-05T07:53:36.756Z,36.1
2022-08-05T07:54:38.737Z,35.3
2022-08-05T07:55:44.085Z,35
2022-08-05T07:56:39.514Z,34.9
2022-08-05T07:57:41.653Z,34.6
2022-08-05T07:58:55.227Z,34.1
2022-08-05T07:59:40.951Z,33.7
2022-08-05T08:00:41.430Z,33.8
2022-08-05T08:01:51.641Z,34.3
2022-08-05T08:03:14.489Z,34.9
2022-08-05T08:03:45.044Z,35
2022-08-05T08:04:46.241Z,35.4
2022-08-05T08:05:49.554Z,35.5
2022-08-05T08:06:48.425Z,35.3
2022-08-05T08:07:59.381Z,35
2022-08-05T08:08:50.439Z,35.1
2022-08-05T08:09:52.227Z,34.6
2022-08-05T08:10:52.517Z,34.9
2022-08-05T08:11:53.524Z,34
2022-08-05T08:12:54.431Z,34.3
2022-08-05T08:14:00.585Z,34.4
2022-08-05T08:14:56.441Z,34.4
2022-08-05T08:16:34.086Z,33.2
2022-08-05T08:16:58.434Z,33.1
2022-08-05T08:17:59.430Z,33.6
2022-08-05T08:19:01.147Z,33.6
2022-08-05T08:20:23.143Z,34.3
2022-08-05T08:21:04.143Z,35
2022-08-05T08:22:05.162Z,35
2022-08-05T08:23:06.464Z,35
2022-08-05T08:24:10.635Z,34.8
2022-08-05T08:25:15.980Z,35.4
2022-08-05T08:26:09.667Z,35
2022-08-05T08:27:11.557Z,34.9
2022-08-05T08:28:18.602Z,35.1
2022-08-05T08:29:22.339Z,34
2022-08-05T08:30:20.449Z,34
2022-08-05T08:31:17.564Z,34.2
2022-08-05T08:32:18.629Z,33.5
2022-08-05T08:33:17.547Z,33.7
2022-08-05T08:34:30.020Z,34.7
2022-08-05T08:35:19.448Z,34.8
2022-08-05T08:36:37.361Z,35.1
2022-08-05T08:37:21.770Z,34.9
2022-08-05T08:38:32.386Z,34.1
2022-08-05T08:39:26.298Z,34.3
2022-08-05T08:40:27.508Z,35.1
2022-08-05T08:41:50.488Z,35.9
2022-08-05T08:42:34.005Z,35.6
2022-08-05T08:45:17.478Z,34.4
2022-08-05T08:45:21.502Z,34.4
2022-08-05T08:45:32.504Z,34.2
2022-08-05T08:46:33.498Z,33.7
2022-08-05T08:47:47.849Z,33.8
2022-08-05T08:48:43.829Z,33.7
2022-08-05T08:50:07.937Z,33.4
2022-08-05T08:51:04.320Z,33.4
2022-08-05T08:52:02.555Z,33.7
2022-08-05T08:52:43.047Z,34.5
2022-08-05T08:53:45.316Z,34.3
2022-08-05T08:54:46.019Z,33.9
2022-08-05T08:56:03.284Z,33.9
2022-08-05T08:56:49.406Z,34.1
2022-08-05T08:57:58.165Z,34.4
2022-08-05T08:58:50.542Z,34.1
2022-08-05T08:59:50.519Z,33.7
2022-08-05T09:00:51.679Z,34.1
2022-08-05T09:01:57.207Z,33.7
2022-08-05T09:02:53.542Z,33.6
2022-08-05T09:03:55.795Z,32.8
2022-08-05T09:04:58.703Z,33
2022-08-05T09:06:08.300Z,33
2022-08-05T09:06:57.557Z,32.8
2022-08-05T09:07:59.155Z,32.8
2022-08-05T09:08:59.765Z,32.6
2022-08-05T09:10:00.608Z,32.4
2022-08-05T09:11:01.571Z,31.7
2022-08-05T09:12:13.499Z,31.4
2022-08-05T09:13:04.565Z,31.8
2022-08-05T09:14:10.405Z,31
2022-08-05T09:15:06.574Z,31.2
2022-08-05T09:16:06.750Z,30.9
2022-08-05T09:17:08.103Z,31
2022-08-05T09:18:09.237Z,31
2022-08-05T09:19:12.027Z,31.2
2022-08-05T09:20:11.864Z,31.5
2022-08-05T09:21:20.577Z,31.6
2022-08-05T09:22:18.312Z,31.5
2022-08-05T09:23:18.363Z,30.8
2022-08-05T09:24:16.617Z,30.7
2022-08-05T09:25:24.222Z,30.6
2022-08-05T09:26:20.663Z,31
2022-08-05T09:28:03.434Z,29.8
2022-08-05T09:28:21.560Z,29.5
2022-08-05T09:29:30.837Z,29.4
2022-08-05T09:30:23.841Z,29.5
2022-08-05T09:32:39.445Z,29.7
2022-08-05T09:32:39.522Z,30.3
2022-08-05T09:33:35.020Z,30.8
2022-08-05T09:34:27.610Z,31
2022-08-05T09:35:28.749Z,31.1
2022-08-05T09:36:33.222Z,30.6
2022-08-05T09:38:11.893Z,30.4
2022-08-05T09:38:32.612Z,29.8
2022-08-05T09:39:41.730Z,29.6
2022-08-05T09:40:34.590Z,29.1
2022-08-05T09:41:38.234Z,29.7
2022-08-05T09:42:36.607Z,28.2
2022-08-05T09:43:40.400Z,27.7
2022-08-05T09:44:38.631Z,27.4
2022-08-05T09:46:05.529Z,27.5
2022-08-05T09:46:50.175Z,27.1
2022-08-05T09:47:48.989Z,27.2
2022-08-05T09:48:42.636Z,27.5
2022-08-05T09:49:54.962Z,27.3
2022-08-05T09:50:45.322Z,26.7
2022-08-05T09:51:48.704Z,26.4
2022-08-05T09:52:46.635Z,26.2
2022-08-05T09:53:53.325Z,27.1
2022-08-05T09:54:48.632Z,26.9
2022-08-05T09:55:55.870Z,26.4
2022-08-05T09:56:51.703Z,26.2
2022-08-05T09:57:54.515Z,26.1
2022-08-05T09:58:52.642Z,25.6
2022-08-05T09:59:53.614Z,26.1
2022-08-05T10:00:54.689Z,26.2
2022-08-05T10:01:58.090Z,26.7
2022-08-05T10:02:59.068Z,27
2022-08-05T10:04:00.051Z,26.6
2022-08-05T10:05:00.849Z,26.7
2022-08-05T10:06:04.751Z,26.2
2022-08-05T10:07:06.065Z,26.2
2022-08-05T10:08:11.563Z,25.8
2022-08-05T10:09:05.186Z,25.9
2022-08-05T10:10:15.430Z,26.1
2022-08-05T10:11:07.676Z,26.2
2022-08-05T10:12:19.046Z,26.3
2022-08-05T10:13:10.080Z,26.7
2022-08-05T10:14:11.095Z,26.9
2022-08-05T10:15:11.712Z,27.4
2022-08-05T10:16:13.193Z,27.2
2022-08-05T10:17:37.051Z,27.2
2022-08-05T10:18:16.625Z,27.6
2022-08-05T10:19:16.706Z,27.6
2022-08-05T10:20:18.216Z,27.4
2022-08-05T10:21:19.593Z,26.7
2022-08-05T10:22:29.588Z,26.6
2022-08-05T10:23:34.827Z,26.2
2022-08-05T10:24:25.038Z,25.6
2022-08-05T10:25:23.696Z,25.3
2022-08-05T10:26:31.574Z,25.2
2022-08-05T10:27:26.159Z,24.5
2022-08-05T10:28:29.017Z,24.7
2022-08-05T10:30:07.288Z,25.5
2022-08-05T10:30:41.695Z,25.3
2022-08-05T10:32:49.816Z,25.5
2022-08-05T10:32:50.312Z,25.4
2022-08-05T10:33:34.170Z,24.8
2022-08-05T10:34:33.746Z,24.5
2022-08-05T10:35:40.476Z,23.9
2022-08-05T10:36:35.853Z,23.4
2022-08-05T10:37:40.528Z,23.3
2022-08-05T10:38:38.820Z,23.8
2022-08-05T10:39:58.792Z,23.7
2022-08-05T10:40:43.562Z,23.7
2022-08-05T10:41:45.028Z,23.2
2022-08-05T10:42:43.737Z,23.3
2022-08-05T10:43:43.727Z,23.6
2022-08-05T10:44:44.761Z,23.4
2022-08-05T10:45:45.741Z,23.2
2022-08-05T10:46:50.844Z,23.4
2022-08-05T10:47:56.219Z,23.4
2022-08-05T10:48:53.189Z,22.9
2022-08-05T10:50:20.359Z,22.8
2022-08-05T10:50:52.789Z,22.9
2022-08-05T10:52:00.084Z,22.8
2022-08-05T10:52:58.608Z,23.5
2022-08-05T10:53:55.745Z,23.7
2022-08-05T10:54:57.335Z,24.6
2022-08-05T10:56:03.378Z,25
2022-08-05T10:56:58.754Z,25.1
2022-08-05T10:57:59.849Z,25.5
2022-08-05T10:59:07.054Z,25.3
2022-08-05T11:00:08.465Z,25
2022-08-05T11:01:03.305Z,24.8
2022-08-05T11:02:05.488Z,24.6
2022-08-05T11:03:22.869Z,24.4
2022-08-05T11:04:07.551Z,24.4
2022-08-05T11:05:09.390Z,23.7
2022-08-05T11:06:14.742Z,23.7
2022-08-05T11:07:10.763Z,23
2022-08-05T11:08:34.003Z,22.8
2022-08-05T11:09:12.995Z,22.7
2022-08-05T11:10:13.798Z,22.7
2022-08-05T11:11:16.626Z,22.6
2022-08-05T11:12:16.121Z,22.3
2022-08-05T11:13:18.085Z,22.9
2022-08-05T11:14:18.798Z,22.6
2022-08-05T11:15:21.249Z,22.9
2022-08-05T11:16:21.511Z,23
2022-08-05T11:17:58.608Z,22.7
2022-08-05T11:18:22.830Z,22.3
2022-08-05T11:20:11.757Z,22.6
2022-08-05T11:20:24.807Z,22.6
2022-08-05T11:21:25.812Z,22.2
2022-08-05T11:22:26.844Z,22.4
2022-08-05T11:23:33.077Z,23.1
2022-08-05T11:24:31.035Z,23.1
2022-08-05T11:26:03.622Z,23.4
2022-08-05T11:26:33.314Z,23.2
2022-08-05T11:27:37.122Z,23.2
2022-08-05T11:28:35.854Z,22.7
2022-08-05T11:29:35.807Z,22.7
2022-08-05T11:30:36.822Z,23.3
2022-08-05T11:31:53.876Z,23.4
2022-08-05T11:32:38.828Z,23.6
2022-08-05T11:33:44.100Z,23.8
2022-08-05T11:34:47.271Z,24.1
2022-08-05T11:35:44.608Z,24
2022-08-05T11:36:43.075Z,22.9
2022-08-05T11:38:27.184Z,22.5
2022-08-05T11:38:45.577Z,22.4
2022-08-05T11:39:47.965Z,22.3
2022-08-05T11:40:46.843Z,22.3
2022-08-05T11:41:58.453Z,22.8
2022-08-05T11:42:48.800Z,23
2022-08-05T11:43:58.518Z,23.6
2022-08-05T11:44:53.515Z,23.3
2022-08-05T11:46:15.723Z,23.5
2022-08-05T11:46:58.808Z,23.9
2022-08-05T11:47:54.637Z,24.1
2022-08-05T11:48:54.858Z,24.2
2022-08-05T11:49:55.966Z,25
2022-08-05T11:50:56.878Z,24.1
2022-08-05T11:51:58.102Z,23
2022-08-05T11:52:58.896Z,22.2
2022-08-05T11:53:59.878Z,21.6
2022-08-05T11:55:07.211Z,21.2
2022-08-05T11:56:01.895Z,21.9
2022-08-05T11:57:07.802Z,22.4
2022-08-05T11:58:08.974Z,22
2022-08-05T11:59:04.891Z,22.3
2022-08-05T12:00:06.719Z,22.2
2022-08-05T12:01:08.418Z,22.4
2022-08-05T12:02:12.199Z,23.3
2022-08-05T12:03:09.946Z,24.1
2022-08-05T12:04:10.882Z,24.2
2022-08-05T12:05:18.192Z,23.4
2022-08-05T12:06:12.882Z,22.8
2022-08-05T12:07:13.875Z,22.6
2022-08-05T12:08:18.105Z,22.3
2022-08-05T12:09:19.886Z,22.1
2022-08-05T12:10:16.890Z,21.9
2022-08-05T12:11:20.399Z,22.2
2022-08-05T12:12:18.903Z,22.6
2022-08-05T12:13:28.247Z,23
2022-08-05T12:14:20.897Z,23.1
2022-08-05T12:15:34.612Z,23.1
2022-08-05T12:16:25.637Z,23.4
2022-08-05T12:18:00.885Z,23.6
2022-08-05T12:18:27.439Z,23.4
2022-08-05T12:20:17.518Z,23.6
2022-08-05T12:20:33.183Z,23
2022-08-05T12:21:29.599Z,23.1
2022-08-05T12:22:28.935Z,22.9
2022-08-05T12:23:30.215Z,23
2022-08-05T12:24:30.937Z,23.3
2022-08-05T12:25:31.925Z,24.2
2022-08-05T12:26:32.966Z,24.2
2022-08-05T12:27:34.129Z,24.3
2022-08-05T12:28:35.014Z,24
2022-08-05T12:29:38.101Z,24.5
2022-08-05T12:30:36.942Z,24.4
2022-08-05T12:31:43.605Z,24.1
2022-08-05T12:32:38.957Z,23.8
2022-08-05T12:33:40.019Z,23.7
2022-08-05T12:34:40.942Z,24.1
2022-08-05T12:35:43.048Z,24
2022-08-05T12:36:43.008Z,23.5
2022-08-05T12:37:43.989Z,23
2022-08-05T12:38:44.992Z,22.9
2022-08-05T12:39:48.486Z,22.8
2022-08-05T12:40:47.250Z,22.9
2022-08-05T12:41:48.663Z,23.1
2022-08-05T12:42:48.947Z,23.3
2022-08-05T12:43:50.063Z,23.5
2022-08-05T12:44:50.941Z,24
2022-08-05T12:45:51.963Z,23.1
2022-08-05T12:46:52.965Z,22.8
2022-08-05T12:48:01.903Z,22.1
2022-08-05T12:48:55.000Z,21.6
2022-08-05T12:50:02.619Z,21.4
2022-08-05T12:50:57.102Z,21.8
2022-08-05T12:52:11.274Z,22
2022-08-05T12:52:59.273Z,22.2
2022-08-05T12:54:00.007Z,21.7
2022-08-05T12:55:01.290Z,21.3
2022-08-05T12:56:02.047Z,21.4
2022-08-05T12:57:03.667Z,21.3
2022-08-05T12:58:39.478Z,21.4
2022-08-05T12:59:08.031Z,21.6
2022-08-05T13:00:08.583Z,21.8
2022-08-05T13:01:59.074Z,21.8
2022-08-05T13:02:08.216Z,21.6
2022-08-05T13:03:12.152Z,21.3
2022-08-05T13:04:10.025Z,21.5
2022-08-05T13:05:12.720Z,21.8
2022-08-05T13:06:12.055Z,21.8
2022-08-05T13:07:15.998Z,21.5
2022-08-05T13:08:14.050Z,21.6
2022-08-05T13:09:15.025Z,21.3
2022-08-05T13:10:19.494Z,21.2
2022-08-05T13:11:17.072Z,20.8
2022-08-05T13:12:18.055Z,20.7
2022-08-05T13:14:04.220Z,20.6
2022-08-05T13:14:20.327Z,20.8
2022-08-05T13:15:24.274Z,21
2022-08-05T13:16:25.058Z,21
2022-08-05T13:17:24.955Z,21.3
2022-08-05T13:18:24.169Z,20.8
2022-08-05T13:19:25.086Z,20.3
2022-08-05T13:20:29.139Z,20.7
2022-08-05T13:21:28.040Z,20.6
2022-08-05T13:22:29.930Z,20.3
2022-08-05T13:23:29.063Z,20.2
2022-08-05T13:24:36.677Z,19.8
2022-08-05T13:25:51.485Z,19.4
2022-08-05T13:26:32.045Z,19.1
2022-08-05T13:27:35.651Z,18.6
2022-08-05T13:28:34.077Z,18.5
2022-08-05T13:29:37.472Z,18.2
2022-08-05T13:30:36.345Z,18.2
2022-08-05T13:32:03.567Z,18
2022-08-05T13:32:42.020Z,18.4
2022-08-05T13:34:20.626Z,18.9
2022-08-05T13:34:40.870Z,18.7
2022-08-05T13:35:43.459Z,18.9
2022-08-05T13:36:42.105Z,19
2022-08-05T13:37:43.111Z,19.3
2022-08-05T13:38:44.096Z,19.6
2022-08-05T13:40:13.354Z,20.3
2022-08-05T13:40:50.065Z,21
2022-08-05T13:41:47.186Z,20.7
2022-08-05T13:42:48.051Z,20.5
2022-08-05T13:43:54.455Z,20.3
2022-08-05T13:44:50.114Z,20.6
2022-08-05T13:45:51.144Z,20.9
2022-08-05T13:47:02.097Z,20.9